createdAt,value
2023-04-03T00:01:16.601Z,92798.31
2023-04-03T00:03:44.441Z,92795.94
2023-04-03T00:06:13.132Z,92788.50
2023-04-03T00:08:41.632Z,92788.41
2023-04-03T00:11:09.744Z,92792.16
2023-04-03T00:13:38.206Z,92786.19
2023-04-03T00:16:06.643Z,92783.00
2023-04-03T00:18:34.314Z,92778.53
2023-04-03T00:21:01.847Z,92776.06
2023-04-03T00:23:29.201Z,92776.06
2023-04-03T00:25:56.951Z,92776.44
2023-04-03T00:28:24.665Z,92784.28
2023-04-03T00:30:52.916Z,92780.69
2023-04-03T00:33:25.773Z,92777.94
2023-04-03T00:35:54.321Z,92775.31
2023-04-03T00:38:22.092Z,92781.84
2023-04-03T00:40:50.649Z,92777.50
2023-04-03T00:43:22.514Z,92778.81
2023-04-03T00:45:52.442Z,92770.63
2023-04-03T00:48:26.692Z,92779.94
2023-04-03T00:50:54.988Z,92776.22
2023-04-03T00:53:36.581Z,92777.78
2023-04-03T00:56:10.272Z,92781.56
2023-04-03T00:58:57.774Z,92790.37
2023-04-03T01:01:29.195Z,92782.31
2023-04-03T01:03:56.996Z,92779.72
2023-04-03T01:06:29.770Z,92781.03
2023-04-03T01:09:01.335Z,92783.00
2023-04-03T01:11:29.112Z,92791.00
2023-04-03T01:13:56.555Z,92788.22
2023-04-03T01:16:24.973Z,92790.53
2023-04-03T01:18:52.831Z,92791.75
2023-04-03T01:21:49.444Z,92794.53
2023-04-03T01:24:28.757Z,92788.56
2023-04-03T01:26:56.731Z,92791.16
2023-04-03T01:29:24.368Z,92794.50
2023-04-03T01:32:00.142Z,92792.31
2023-04-03T01:34:29.461Z,92794.50
2023-04-03T01:36:57.005Z,92797.44
2023-04-03T01:39:24.315Z,92796.44
2023-04-03T01:41:52.042Z,92791.50
2023-04-03T01:44:19.769Z,92791.53
2023-04-03T01:46:48.663Z,92795.28
2023-04-03T01:49:16.362Z,92794.09
2023-04-03T01:51:43.641Z,92801.88
2023-04-03T01:54:11.363Z,92792.34
2023-04-03T01:56:40.246Z,92794.72
2023-04-03T01:59:08.512Z,92801.31
2023-04-03T02:01:36.291Z,92802.91
2023-04-03T02:04:04.162Z,92792.16
2023-04-03T02:06:31.532Z,92798.94
2023-04-03T02:08:58.940Z,92793.19
2023-04-03T02:11:26.733Z,92794.94
2023-04-03T02:13:54.020Z,92785.59
2023-04-03T02:16:21.328Z,92790.41
2023-04-03T02:18:51.102Z,92786.59
2023-04-03T02:21:19.023Z,92784.63
2023-04-03T02:23:46.530Z,92786.41
2023-04-03T02:26:16.439Z,92784.03
2023-04-03T02:28:46.412Z,92776.25
2023-04-03T02:31:14.356Z,92773.28
2023-04-03T02:33:42.228Z,92778.62
2023-04-03T02:36:10.598Z,92779.00
2023-04-03T02:38:38.612Z,92780.06
2023-04-03T02:41:08.553Z,92782.44
2023-04-03T02:43:36.329Z,92788.63
2023-04-03T02:46:04.558Z,92779.28
2023-04-03T02:48:32.756Z,92777.69
2023-04-03T02:51:00.120Z,92781.06
2023-04-03T02:53:27.839Z,92771.31
2023-04-03T02:55:55.216Z,92772.91
2023-04-03T02:58:22.501Z,92773.69
2023-04-03T03:00:50.941Z,92774.28
2023-04-03T03:03:18.304Z,92772.69
2023-04-03T03:05:45.929Z,92770.13
2023-04-03T03:08:13.601Z,92767.34
2023-04-03T03:10:40.879Z,92755.03
2023-04-03T03:13:08.375Z,92761.78
2023-04-03T03:15:36.317Z,92759.41
2023-04-03T03:18:03.964Z,92752.66
2023-04-03T03:20:31.669Z,92753.44
2023-04-03T03:22:59.392Z,92750.44
2023-04-03T03:25:26.734Z,92748.25
2023-04-03T03:27:54.501Z,92750.22
2023-04-03T03:30:22.422Z,92744.09
2023-04-03T03:32:49.792Z,92750.84
2023-04-03T03:35:17.158Z,92740.72
2023-04-03T03:37:44.878Z,92746.47
2023-04-03T03:40:14.254Z,92741.53
2023-04-03T03:42:41.453Z,92735.16
2023-04-03T03:45:10.552Z,92740.31
2023-04-03T03:47:38.171Z,92739.53
2023-04-03T03:50:06.376Z,92738.75
2023-04-03T03:52:34.268Z,92751.84
2023-04-03T03:55:01.701Z,92751.84
2023-04-03T03:57:30.054Z,92750.25
2023-04-03T03:59:58.001Z,92742.50
2023-04-03T04:02:25.796Z,92735.75
2023-04-03T04:04:53.755Z,92745.87
2023-04-03T04:07:21.446Z,92746.91
2023-04-03T04:09:49.109Z,92743.50
2023-04-03T04:12:17.388Z,92737.34
2023-04-03T04:14:47.732Z,92741.91
2023-04-03T04:17:16.294Z,92745.87
2023-04-03T04:19:45.046Z,92738.13
2023-04-03T04:22:12.788Z,92741.53
2023-04-03T04:24:40.617Z,92747.69
2023-04-03T04:27:09.215Z,92760.59
2023-04-03T04:29:38.383Z,92759.00
2023-04-03T04:32:06.139Z,92765.56
2023-04-03T04:34:33.936Z,92767.16
2023-04-03T04:37:01.998Z,92767.94
2023-04-03T04:39:30.250Z,92765.34
2023-04-03T04:41:58.352Z,92762.97
2023-04-03T04:44:26.441Z,92776.84
2023-04-03T04:46:54.538Z,92786.12
2023-04-03T04:49:22.302Z,92781.28
2023-04-03T04:51:52.312Z,92790.53
2023-04-03T04:54:20.306Z,92787.19
2023-04-03T04:56:48.858Z,92783.22
2023-04-03T04:59:17.030Z,92796.53
2023-04-03T05:01:44.727Z,92797.13
2023-04-03T05:04:13.985Z,92799.50
2023-04-03T05:06:41.907Z,92797.34
2023-04-03T05:09:11.085Z,92796.75
2023-04-03T05:11:40.325Z,92803.88
2023-04-03T05:14:09.370Z,92805.00
2023-04-03T05:16:37.447Z,92801.25
2023-04-03T05:19:05.580Z,92799.13
2023-04-03T05:21:33.736Z,92799.31
2023-04-03T05:24:04.149Z,92799.69
2023-04-03T05:26:33.372Z,92802.91
2023-04-03T05:29:01.324Z,92801.47
2023-04-03T05:31:30.814Z,92798.31
2023-04-03T05:33:59.528Z,92797.84
2023-04-03T05:36:28.063Z,92784.72
2023-04-03T05:38:57.562Z,92791.34
2023-04-03T05:41:26.946Z,92785.09
2023-04-03T05:43:54.440Z,92784.56
2023-04-03T05:46:23.423Z,92790.16
2023-04-03T05:48:52.486Z,92791.91
2023-04-03T05:51:41.044Z,92789.03
2023-04-03T05:54:21.645Z,92785.94
2023-04-03T05:56:50.640Z,92773.78
2023-04-03T05:59:20.746Z,92774.38
2023-04-03T06:01:50.023Z,92781.38
2023-04-03T06:04:17.840Z,92774.81
2023-04-03T06:06:59.041Z,92759.81
2023-04-03T06:09:30.173Z,92764.94
2023-04-03T06:11:59.874Z,92769.50
2023-04-03T06:14:28.521Z,92770.63
2023-04-03T06:16:56.114Z,92768.41
2023-04-03T06:19:24.382Z,92761.09
2023-04-03T06:21:53.076Z,92763.03
2023-04-03T06:24:22.907Z,92761.06
2023-04-03T06:26:52.504Z,92755.94
2023-04-03T06:29:22.089Z,92762.13
2023-04-03T06:31:50.546Z,92761.53
2023-04-03T06:34:19.316Z,92755.25
2023-04-03T06:36:47.069Z,92753.59
2023-04-03T06:39:17.752Z,92755.69
2023-04-03T06:41:45.574Z,92762.59
2023-04-03T06:44:16.820Z,92762.19
2023-04-03T06:46:46.536Z,92751.94
2023-04-03T06:49:16.611Z,92750.44
2023-04-03T06:51:44.025Z,92756.84
2023-04-03T06:54:11.366Z,92755.25
2023-04-03T06:56:39.037Z,92766.34
2023-04-03T06:59:06.403Z,92762.69
2023-04-03T07:01:33.834Z,92769.75
2023-04-03T07:04:01.764Z,92758.59
2023-04-03T07:06:29.800Z,92763.91
2023-04-03T07:08:57.469Z,92761.06
2023-04-03T07:11:25.666Z,92760.78
2023-04-03T07:13:53.663Z,92760.81
2023-04-03T07:16:22.463Z,92759.91
2023-04-03T07:18:50.662Z,92759.84
2023-04-03T07:21:18.116Z,92751.00
2023-04-03T07:23:46.049Z,92746.38
2023-04-03T07:26:14.080Z,92740.88
2023-04-03T07:28:42.555Z,92738.13
2023-04-03T07:31:14.779Z,92737.44
2023-04-03T07:33:43.016Z,92726.41
2023-04-03T07:36:12.062Z,92721.75
2023-04-03T07:38:39.413Z,92715.63
2023-04-03T07:41:07.721Z,92708.09
2023-04-03T07:43:35.615Z,92705.06
2023-04-03T07:46:06.524Z,92708.44
2023-04-03T07:48:36.080Z,92706.09
2023-04-03T07:51:05.168Z,92700.91
2023-04-03T07:53:33.151Z,92707.81
2023-04-03T07:56:01.197Z,92710.00
2023-04-03T07:58:28.563Z,92709.03
2023-04-03T08:00:55.884Z,92706.25
2023-04-03T08:03:23.875Z,92696.97
2023-04-03T08:05:52.042Z,92705.34
2023-04-03T08:08:23.284Z,92702.69
2023-04-03T08:10:54.854Z,92691.81
2023-04-03T08:13:23.630Z,92697.66
2023-04-03T08:15:52.027Z,92694.69
2023-04-03T08:18:22.528Z,92698.63
2023-04-03T08:20:49.921Z,92680.88
2023-04-03T08:23:19.900Z,92688.47
2023-04-03T08:25:47.714Z,92688.25
2023-04-03T08:28:15.174Z,92677.78
2023-04-03T08:30:43.966Z,92673.72
2023-04-03T08:33:11.908Z,92672.50
2023-04-03T08:35:43.709Z,92670.34
2023-04-03T08:38:11.734Z,92670.22
2023-04-03T08:40:40.830Z,92671.28
2023-04-03T08:43:30.863Z,92662.66
2023-04-03T08:46:02.521Z,92668.09
2023-04-03T08:48:37.768Z,92660.00
2023-04-03T08:51:16.330Z,92655.09
2023-04-03T08:53:52.153Z,92648.19
2023-04-03T08:56:21.794Z,92642.34
2023-04-03T08:58:50.774Z,92645.72
2023-04-03T09:01:27.602Z,92636.81
2023-04-03T09:03:55.715Z,92638.59
2023-04-03T09:06:30.263Z,92637.13
2023-04-03T09:09:33.973Z,92636.09
2023-04-03T09:12:20.161Z,92635.19
2023-04-03T09:14:55.250Z,92631.53
2023-04-03T09:17:36.674Z,92631.56
2023-04-03T09:20:08.023Z,92615.28
2023-04-03T09:22:45.722Z,92612.19
2023-04-03T09:25:34.462Z,92603.28
2023-04-03T09:28:10.997Z,92603.28
2023-04-03T09:30:39.536Z,92605.69
2023-04-03T09:33:08.406Z,92610.38
2023-04-03T09:35:47.368Z,92607.78
2023-04-03T09:38:19.886Z,92603.59
2023-04-03T09:41:05.013Z,92606.94
2023-04-03T09:43:35.722Z,92606.66
2023-04-03T09:46:34.210Z,92606.09
2023-04-03T09:49:09.517Z,92591.63
2023-04-03T09:51:38.836Z,92591.97
2023-04-03T09:54:32.733Z,92594.88
2023-04-03T09:57:09.270Z,92590.91
2023-04-03T09:59:45.678Z,92589.06
2023-04-03T10:02:24.615Z,92591.91
2023-04-03T10:05:02.362Z,92585.63
2023-04-03T10:07:39.048Z,92583.22
2023-04-03T10:10:16.081Z,92585.37
2023-04-03T10:12:43.524Z,92588.25
2023-04-03T10:15:17.070Z,92577.78
2023-04-03T10:18:08.771Z,92579.91
2023-04-03T10:20:48.315Z,92580.19
2023-04-03T10:24:08.178Z,92582.53
2023-04-03T10:26:42.429Z,92586.47
2023-04-03T10:29:44.085Z,92581.41
2023-04-03T10:32:54.526Z,92584.47
2023-04-03T10:35:38.124Z,92582.50
2023-04-03T10:38:32.854Z,92571.53
2023-04-03T10:41:24.567Z,92567.91
2023-04-03T10:43:53.612Z,92579.97
2023-04-03T10:46:43.321Z,92566.91
2023-04-03T10:49:17.757Z,92573.75
2023-04-03T10:51:53.963Z,92574.75
2023-04-03T10:54:57.582Z,92576.81
2023-04-03T10:57:27.478Z,92580.22
2023-04-03T11:00:00.774Z,92579.75
2023-04-03T11:02:34.034Z,92581.09
2023-04-03T11:05:41.109Z,92586.63
2023-04-03T11:08:35.185Z,92580.62
2023-04-03T11:11:15.493Z,92589.47
2023-04-03T11:14:03.601Z,92590.25
2023-04-03T11:16:53.097Z,92585.56
2023-04-03T11:19:26.448Z,92588.56
2023-04-03T11:22:21.930Z,92576.16
2023-04-03T11:25:04.270Z,92580.69
2023-04-03T11:27:52.136Z,92576.38
2023-04-03T11:30:41.424Z,92570.88
2023-04-03T11:33:34.630Z,92578.78
2023-04-03T11:36:26.033Z,92576.38
2023-04-03T11:39:02.489Z,92581.91
2023-04-03T11:41:33.100Z,92582.72
2023-04-03T11:44:28.065Z,92581.03
2023-04-03T11:46:58.894Z,92582.72
2023-04-03T11:49:53.379Z,92589.59
2023-04-03T11:52:44.416Z,92590.31
2023-04-03T11:55:24.693Z,92594.25
2023-04-03T11:58:04.356Z,92591.13
2023-04-03T12:00:52.194Z,92597.78
2023-04-03T12:03:26.169Z,92591.09
2023-04-03T12:05:55.246Z,92592.06
2023-04-03T12:08:42.725Z,92587.22
2023-04-03T12:11:10.404Z,92591.50
2023-04-03T12:13:50.578Z,92593.47
2023-04-03T12:16:26.013Z,92586.13
2023-04-03T12:18:53.812Z,92583.53
2023-04-03T12:21:48.504Z,92586.34
2023-04-03T12:24:22.352Z,92576.28
2023-04-03T12:27:20.989Z,92573.62
2023-04-03T12:29:52.689Z,92575.69
2023-04-03T12:32:23.249Z,92571.97
2023-04-03T12:35:13.271Z,92566.22
2023-04-03T12:38:03.283Z,92560.53
2023-04-03T12:40:43.019Z,92549.34
2023-04-03T12:43:47.400Z,92536.47
2023-04-03T12:46:24.666Z,92538.28
2023-04-03T12:48:56.477Z,92537.03
2023-04-03T12:51:36.146Z,92527.88
2023-04-03T12:54:14.328Z,92518.81
2023-04-03T12:56:42.352Z,92511.88
2023-04-03T12:59:23.440Z,92510.13
2023-04-03T13:01:59.775Z,92513.34
2023-04-03T13:04:29.896Z,92523.66
2023-04-03T13:06:58.031Z,92526.00
2023-04-03T13:09:28.943Z,92531.03
2023-04-03T13:11:59.209Z,92530.16
2023-04-03T13:14:30.214Z,92531.37
2023-04-03T13:17:00.553Z,92523.81
2023-04-03T13:19:30.130Z,92523.00
2023-04-03T13:22:05.907Z,92525.13
2023-04-03T13:24:37.426Z,92518.53
2023-04-03T13:27:06.584Z,92517.00
2023-04-03T13:29:37.336Z,92518.75
2023-04-03T13:32:07.423Z,92510.06
2023-04-03T13:34:45.194Z,92509.34
2023-04-03T13:37:28.297Z,92505.50
2023-04-03T13:40:12.983Z,92511.03
2023-04-03T13:42:42.922Z,92498.28
2023-04-03T13:45:17.684Z,92503.75
2023-04-03T13:47:46.899Z,92511.94
2023-04-03T13:50:23.622Z,92507.09
2023-04-03T13:52:56.153Z,92494.97
2023-04-03T13:55:30.215Z,92494.31
2023-04-03T13:58:09.579Z,92496.09
2023-04-03T14:00:39.421Z,92495.09
2023-04-03T14:03:25.885Z,92489.31
2023-04-03T14:05:54.604Z,92484.91
2023-04-03T14:08:32.371Z,92484.44
2023-04-03T14:11:07.387Z,92479.00
2023-04-03T14:13:35.107Z,92478.75
2023-04-03T14:16:15.028Z,92482.12
2023-04-03T14:18:47.729Z,92474.56
2023-04-03T14:21:17.571Z,92474.06
2023-04-03T14:23:46.543Z,92471.09
2023-04-03T14:26:17.587Z,92467.78
2023-04-03T14:28:48.106Z,92472.88
2023-04-03T14:31:17.089Z,92470.03
2023-04-03T14:33:45.457Z,92464.94
2023-04-03T14:36:15.897Z,92461.88
2023-04-03T14:38:44.658Z,92464.31
2023-04-03T14:41:17.045Z,92465.22
2023-04-03T14:43:45.692Z,92468.13
2023-04-03T14:46:19.205Z,92467.62
2023-04-03T14:48:47.221Z,92463.09
2023-04-03T14:51:16.615Z,92455.50
2023-04-03T14:53:46.062Z,92449.75
2023-04-03T14:56:30.902Z,92453.88
2023-04-03T14:59:02.487Z,92451.50
2023-04-03T15:01:31.449Z,92448.63
2023-04-03T15:03:59.241Z,92449.09
2023-04-03T15:06:27.327Z,92447.56
2023-04-03T15:08:54.618Z,92440.56
2023-04-03T15:11:22.333Z,92441.66
2023-04-03T15:13:49.674Z,92441.41
2023-04-03T15:16:19.693Z,92444.97
2023-04-03T15:18:48.575Z,92444.34
2023-04-03T15:21:16.458Z,92441.09
2023-04-03T15:23:46.421Z,92435.03
2023-04-03T15:26:15.004Z,92436.41
2023-04-03T15:28:43.950Z,92428.66
2023-04-03T15:31:12.052Z,92433.16
2023-04-03T15:33:40.238Z,92421.94
2023-04-03T15:36:17.224Z,92427.28
2023-04-03T15:38:55.492Z,92425.19
2023-04-03T15:41:23.045Z,92423.16
2023-04-03T15:43:50.568Z,92420.94
2023-04-03T15:46:18.354Z,92431.44
2023-04-03T15:48:46.076Z,92420.47
2023-04-03T15:51:13.523Z,92417.41
2023-04-03T15:53:41.278Z,92414.81
2023-04-03T15:56:10.789Z,92412.72
2023-04-03T15:58:38.185Z,92410.37
2023-04-03T16:01:06.975Z,92416.69
2023-04-03T16:03:37.924Z,92403.84
2023-04-03T16:06:05.634Z,92393.19
2023-04-03T16:08:33.123Z,92406.12
2023-04-03T16:11:00.983Z,92393.22
2023-04-03T16:13:29.463Z,92382.97
2023-04-03T16:15:57.080Z,92380.34
2023-04-03T16:18:24.774Z,92376.84
2023-04-03T16:20:52.170Z,92375.41
2023-04-03T16:23:20.068Z,92373.44
2023-04-03T16:25:48.191Z,92369.78
2023-04-03T16:28:16.194Z,92365.53
2023-04-03T16:30:44.664Z,92354.13
2023-04-03T16:33:13.840Z,92345.16
2023-04-03T16:35:43.143Z,92329.56
2023-04-03T16:38:10.513Z,92322.75
2023-04-03T16:40:38.350Z,92313.75
2023-04-03T16:43:05.892Z,92313.75
2023-04-03T16:45:33.352Z,92313.25
2023-04-03T16:48:01.242Z,92301.53
2023-04-03T16:50:28.910Z,92293.56
2023-04-03T16:52:56.392Z,92304.47
2023-04-03T16:55:24.204Z,92297.97
2023-04-03T16:57:51.704Z,92279.41
2023-04-03T17:00:19.271Z,92266.13
2023-04-03T17:02:47.004Z,92264.69
2023-04-03T17:05:14.535Z,92267.50
2023-04-03T17:07:41.986Z,92260.41
2023-04-03T17:10:09.906Z,92256.22
2023-04-03T17:12:38.427Z,92257.19
2023-04-03T17:15:06.354Z,92267.09
2023-04-03T17:17:34.654Z,92264.69
2023-04-03T17:20:02.552Z,92267.66
2023-04-03T17:22:30.931Z,92252.72
2023-04-03T17:25:00.366Z,92246.62
2023-04-03T17:27:28.481Z,92250.37
2023-04-03T17:29:56.222Z,92242.37
2023-04-03T17:32:26.982Z,92236.97
2023-04-03T17:34:54.849Z,92243.19
2023-04-03T17:37:22.299Z,92239.59
2023-04-03T17:39:50.231Z,92244.63
2023-04-03T17:42:18.569Z,92225.75
2023-04-03T17:44:47.030Z,92223.62
2023-04-03T17:47:15.595Z,92222.62
2023-04-03T17:49:43.142Z,92231.88
2023-04-03T17:52:13.689Z,92233.66
2023-04-03T17:54:42.234Z,92235.94
2023-04-03T17:57:20.987Z,92235.69
2023-04-03T17:59:49.589Z,92234.87
2023-04-03T18:02:17.331Z,92235.50
2023-04-03T18:04:45.648Z,92208.81
2023-04-03T18:07:13.099Z,92222.53
2023-04-03T18:09:41.523Z,92215.28
2023-04-03T18:12:10.690Z,92216.25
2023-04-03T18:14:39.652Z,92218.19
2023-04-03T18:17:07.622Z,92205.97
2023-04-03T18:19:35.762Z,92211.19
2023-04-03T18:22:24.322Z,92218.75
2023-04-03T18:24:53.886Z,92218.44
2023-04-03T18:27:23.413Z,92212.72
2023-04-03T18:29:54.437Z,92215.31
2023-04-03T18:32:23.373Z,92221.63
2023-04-03T18:34:50.948Z,92208.12
2023-04-03T18:37:19.141Z,92207.41
2023-04-03T18:39:47.067Z,92200.56
2023-04-03T18:42:18.760Z,92212.50
2023-04-03T18:44:50.797Z,92203.41
2023-04-03T18:47:19.246Z,92205.09
2023-04-03T18:49:46.904Z,92212.22
2023-04-03T18:52:14.651Z,92205.41
2023-04-03T18:54:43.083Z,92192.59
2023-04-03T18:57:10.472Z,92199.50
2023-04-03T18:59:38.837Z,92206.09
2023-04-03T19:02:08.798Z,92154.97
2023-04-03T19:04:37.165Z,92192.69
2023-04-03T19:07:06.617Z,92166.22
2023-04-03T19:09:34.934Z,92173.59
2023-04-03T19:12:02.383Z,92179.63
2023-04-03T19:14:29.734Z,92181.03
2023-04-03T19:16:57.664Z,92173.06
2023-04-03T19:19:25.365Z,92163.97
2023-04-03T19:21:52.735Z,92161.22
2023-04-03T19:24:21.897Z,92153.62
2023-04-03T19:26:49.232Z,92162.41
2023-04-03T19:29:16.696Z,92165.53
2023-04-03T19:31:44.535Z,92150.41
2023-04-03T19:34:12.189Z,92148.91
2023-04-03T19:36:39.732Z,92146.69
2023-04-03T19:39:07.927Z,92144.16
2023-04-03T19:41:37.228Z,92139.16
2023-04-03T19:44:06.761Z,92134.31
2023-04-03T19:46:35.847Z,92129.78
2023-04-03T19:49:03.899Z,92143.13
2023-04-03T19:51:31.355Z,92139.81
2023-04-03T19:53:59.073Z,92143.72
2023-04-03T19:56:27.312Z,92122.91
2023-04-03T19:58:55.113Z,92119.28
2023-04-03T20:01:24.538Z,92131.59
2023-04-03T20:03:52.727Z,92132.84
2023-04-03T20:06:20.236Z,92130.75
2023-04-03T20:08:47.866Z,92128.13
2023-04-03T20:11:15.762Z,92112.03
2023-04-03T20:13:43.129Z,92111.31
2023-04-03T20:16:10.645Z,92097.84
2023-04-03T20:18:38.950Z,92112.16
2023-04-03T20:21:07.062Z,92096.69
2023-04-03T20:23:37.307Z,92099.59
2023-04-03T20:26:11.763Z,92100.25
2023-04-03T20:28:43.649Z,92100.59
2023-04-03T20:31:14.401Z,92104.87
2023-04-03T20:33:42.060Z,92102.78
2023-04-03T20:36:09.747Z,92097.87
2023-04-03T20:38:37.506Z,92098.50
2023-04-03T20:41:05.532Z,92091.44
2023-04-03T20:43:33.078Z,92083.06
2023-04-03T20:46:01.768Z,92080.19
2023-04-03T20:48:31.481Z,92076.47
2023-04-03T20:50:59.141Z,92067.88
2023-04-03T20:53:27.604Z,92082.09
2023-04-03T20:56:00.432Z,92102.50
2023-04-03T20:58:30.816Z,92101.50
2023-04-03T21:00:58.292Z,92103.56
2023-04-03T21:03:28.841Z,92091.56
2023-04-03T21:06:03.973Z,92090.28
2023-04-03T21:09:09.274Z,92082.03
2023-04-03T21:12:14.558Z,92078.69
2023-04-03T21:15:21.568Z,92084.75
2023-04-03T21:18:10.443Z,92072.56
2023-04-03T21:20:38.067Z,92060.66
2023-04-03T21:23:06.654Z,92050.97
2023-04-03T21:25:34.441Z,92048.53
2023-04-03T21:28:02.605Z,92037.63
2023-04-03T21:30:30.177Z,92040.56
2023-04-03T21:32:57.977Z,92040.34
2023-04-03T21:35:25.349Z,92032.62
2023-04-03T21:37:53.238Z,92031.84
2023-04-03T21:40:21.026Z,92031.53
2023-04-03T21:42:54.217Z,92031.53
2023-04-03T21:45:21.947Z,92038.53
2023-04-03T21:47:49.219Z,92040.41
2023-04-03T21:50:16.762Z,92027.66
2023-04-03T21:52:45.498Z,92025.81
2023-04-03T21:55:12.849Z,92019.78
2023-04-03T21:57:40.177Z,92023.31
2023-04-03T22:00:10.943Z,92028.63
2023-04-03T22:02:42.048Z,92028.09
2023-04-03T22:05:09.499Z,92025.66
2023-04-03T22:07:37.378Z,92019.75
2023-04-03T22:10:05.766Z,92010.38
2023-04-03T22:12:32.982Z,92017.22
2023-04-03T22:15:00.706Z,92015.53
2023-04-03T22:17:31.476Z,92021.13
2023-04-03T22:19:58.884Z,92022.38
2023-04-03T22:22:26.673Z,92017.94
2023-04-03T22:24:55.769Z,91997.37
2023-04-03T22:27:23.212Z,92000.84
2023-04-03T22:29:50.587Z,91997.13
2023-04-03T22:32:18.233Z,91985.56
2023-04-03T22:34:45.537Z,91970.13
2023-04-03T22:37:12.860Z,91952.47
2023-04-03T22:39:40.445Z,91963.12
2023-04-03T22:42:07.977Z,91969.09
2023-04-03T22:44:36.755Z,91972.09
2023-04-03T22:47:04.456Z,91971.53
2023-04-03T22:49:32.238Z,91977.78
2023-04-03T22:51:59.601Z,91968.50
2023-04-03T22:54:27.118Z,91971.44
2023-04-03T22:56:54.483Z,91980.25
2023-04-03T22:59:21.805Z,91983.37
2023-04-03T23:01:49.403Z,91985.66
2023-04-03T23:04:16.793Z,91979.44
2023-04-03T23:06:44.089Z,91981.19
2023-04-03T23:09:11.676Z,91981.69
2023-04-03T23:11:38.843Z,91973.69
2023-04-03T23:14:07.840Z,91976.63
2023-04-03T23:16:35.539Z,91977.66
2023-04-03T23:19:03.471Z,91969.78
2023-04-03T23:21:30.644Z,91976.72
2023-04-03T23:23:58.390Z,91958.72
2023-04-03T23:26:26.623Z,91958.25
2023-04-03T23:28:53.896Z,91971.53
2023-04-03T23:31:21.615Z,91959.06
2023-04-03T23:33:48.963Z,91943.63
2023-04-03T23:36:16.927Z,91930.22
2023-04-03T23:38:44.607Z,91944.75
2023-04-03T23:41:13.142Z,91930.81
2023-04-03T23:43:41.656Z,91932.81
2023-04-03T23:46:09.305Z,91929.94
2023-04-03T23:48:36.649Z,91927.28
2023-04-03T23:51:04.078Z,91931.03
2023-04-03T23:53:31.720Z,91931.84
2023-04-03T23:56:00.815Z,91926.16
2023-04-03T23:58:28.004Z,91931.84
